createdAt,value
2023-04-21T00:00:18.373Z,7.40
2023-04-21T00:17:38.250Z,7.00
2023-04-21T00:22:00.288Z,6.90
2023-04-21T00:26:21.844Z,7.00
2023-04-21T00:43:16.145Z,7.20
2023-04-21T00:47:44.946Z,6.80
2023-04-21T01:09:21.348Z,6.70
2023-04-21T01:13:50.191Z,6.20
2023-04-21T01:18:20.440Z,6.80
2023-04-21T01:22:41.856Z,7.30
2023-04-21T01:26:51.870Z,6.40
2023-04-21T01:48:20.081Z,6.90
2023-04-21T01:52:38.039Z,6.70
2023-04-21T01:57:06.966Z,7.90
2023-04-21T02:18:17.869Z,7.70
2023-04-21T02:22:47.038Z,6.60
2023-04-21T02:27:17.057Z,6.80
2023-04-21T02:44:38.908Z,7.10
2023-04-21T02:49:07.646Z,6.60
2023-04-21T03:10:35.236Z,7.20
2023-04-21T03:14:42.078Z,5.90
2023-04-21T03:19:11.202Z,7.10
2023-04-21T03:23:23.119Z,6.50
2023-04-21T03:41:39.469Z,6.80
2023-04-21T03:46:08.777Z,6.60
2023-04-21T03:50:37.996Z,6.80
2023-04-21T03:55:00.474Z,5.90
2023-04-21T04:16:02.732Z,6.50
2023-04-21T04:20:32.040Z,7.80
2023-04-21T04:24:53.921Z,6.40
2023-04-21T04:29:23.066Z,7.20
2023-04-21T04:38:07.752Z,7.70
2023-04-21T04:42:36.936Z,8.20
2023-04-21T05:00:47.099Z,6.90
2023-04-21T05:05:16.690Z,6.90
2023-04-21T05:09:46.105Z,7.50
2023-04-21T05:14:05.678Z,7.00
2023-04-21T05:22:14.070Z,7.50
2023-04-21T05:49:02.541Z,7.30
2023-04-21T05:52:55.158Z,6.50
2023-04-21T05:57:13.875Z,6.90
2023-04-21T06:01:35.477Z,6.90
2023-04-21T06:05:45.406Z,7.90
2023-04-21T06:10:03.528Z,7.20
2023-04-21T06:26:46.830Z,7.40
2023-04-21T06:31:06.972Z,6.30
2023-04-21T06:35:30.197Z,6.70
2023-04-21T06:39:58.861Z,6.70
2023-04-21T07:52:36.175Z,5.80
2023-04-21T07:56:40.977Z,5.40
2023-04-21T08:01:10.074Z,4.50
2023-04-21T08:05:32.151Z,4.70
2023-04-21T08:09:57.004Z,4.70
2023-04-21T08:13:59.258Z,4.50
2023-04-21T08:18:11.289Z,4.20
2023-04-21T08:22:40.610Z,3.90
2023-04-21T09:07:06.427Z,5.40
2023-04-21T09:11:32.830Z,4.00
2023-04-21T09:24:37.792Z,4.70
2023-04-21T09:41:37.214Z,4.70
2023-04-21T09:46:08.981Z,4.10
2023-04-21T09:54:54.724Z,3.70
2023-04-21T09:59:23.667Z,3.70
2023-04-21T10:03:39.842Z,3.60
2023-04-21T10:07:51.238Z,4.20
2023-04-21T10:50:31.915Z,2.80
2023-04-21T10:54:48.955Z,3.50
2023-04-21T10:59:09.766Z,3.00
2023-04-21T11:03:01.410Z,2.60
2023-04-21T11:07:47.114Z,2.70
2023-04-21T11:12:02.228Z,2.90
2023-04-21T11:16:02.969Z,3.20
2023-04-21T11:20:05.790Z,2.90
2023-04-21T11:49:39.803Z,3.40
2023-04-21T11:54:02.279Z,2.80
2023-04-21T12:18:38.600Z,2.30
2023-04-21T12:22:35.401Z,3.00
2023-04-21T12:26:39.509Z,3.10
2023-04-21T12:30:49.468Z,3.00
2023-04-21T12:34:56.271Z,2.80
2023-04-21T12:39:12.172Z,2.80
2023-04-21T12:43:10.493Z,2.90
2023-04-21T13:03:35.732Z,2.80
2023-04-21T13:07:48.320Z,2.90
2023-04-21T13:12:14.224Z,3.40
2023-04-21T13:16:13.595Z,2.80
2023-04-21T13:20:32.834Z,2.90
2023-04-21T13:40:59.383Z,2.60
2023-04-21T13:45:28.603Z,2.70
2023-04-21T14:29:25.283Z,2.80
2023-04-21T14:33:43.440Z,3.00
2023-04-21T14:38:12.104Z,2.30
2023-04-21T14:55:19.406Z,2.80
2023-04-21T14:59:26.305Z,2.30
2023-04-21T15:03:44.052Z,2.30
2023-04-21T15:07:50.975Z,2.60
2023-04-21T15:11:57.037Z,2.50
2023-04-21T15:16:00.440Z,2.50
2023-04-21T15:20:12.040Z,2.30
2023-04-21T15:24:40.982Z,2.60
2023-04-21T15:29:02.052Z,2.80
2023-04-21T15:54:37.972Z,2.60
2023-04-21T15:58:37.347Z,2.40
2023-04-21T16:03:08.219Z,2.40
2023-04-21T16:07:14.958Z,2.50
2023-04-21T16:11:26.742Z,2.20
2023-04-21T16:33:24.518Z,2.20
2023-04-21T16:37:31.152Z,2.30
2023-04-21T16:41:48.618Z,2.50
2023-04-21T16:46:01.908Z,3.20
2023-04-21T16:50:33.246Z,3.80
2023-04-21T17:20:07.904Z,4.60
2023-04-21T17:24:03.941Z,4.50
2023-04-21T17:28:19.726Z,5.90
2023-04-21T17:32:51.599Z,4.20
2023-04-21T17:37:13.146Z,4.60
2023-04-21T17:53:47.660Z,6.10
2023-04-21T18:14:13.014Z,3.90
2023-04-21T18:18:42.176Z,3.50
2023-04-21T18:23:10.190Z,3.60
2023-04-21T18:27:33.814Z,3.50
2023-04-21T18:32:04.894Z,3.10
2023-04-21T18:36:34.883Z,3.60
2023-04-21T18:40:54.545Z,4.70
2023-04-21T18:45:24.490Z,8.00
2023-04-21T19:06:49.441Z,3.10
2023-04-21T19:11:19.373Z,2.80
2023-04-21T19:28:46.234Z,3.10
2023-04-21T19:33:11.516Z,2.80
2023-04-21T19:50:15.152Z,3.30
2023-04-21T19:54:27.248Z,3.40
2023-04-21T20:11:29.101Z,3.20
2023-04-21T20:16:00.225Z,3.30
2023-04-21T20:20:14.902Z,3.10
2023-04-21T20:42:09.283Z,4.80
2023-04-21T20:46:23.095Z,4.40
2023-04-21T20:50:47.383Z,4.70
2023-04-21T21:08:08.906Z,5.40
2023-04-21T21:12:38.103Z,4.70
2023-04-21T21:39:51.057Z,7.30
2023-04-21T21:44:08.267Z,7.50
2023-04-21T22:09:55.974Z,8.40
2023-04-21T22:14:24.797Z,7.30
2023-04-21T22:18:46.802Z,7.50
2023-04-21T22:40:00.489Z,7.00
2023-04-21T22:44:29.148Z,7.50
2023-04-21T22:48:51.128Z,6.00
2023-04-21T23:05:59.322Z,5.40
2023-04-21T23:10:28.116Z,4.60
2023-04-21T23:14:40.245Z,4.70
2023-04-21T23:32:00.389Z,4.40
2023-04-21T23:36:08.727Z,4.00
2023-04-21T23:56:55.746Z,5.60
